Stations météo

réclame
Mon MeteoGroup
Monte S. Angelo, Italie (16258): Température de l'air & dewpoint: 11.10.2017 20:00:00 - 17.10.2017 20:00:00 (CEST)Monte S. Angelo, Italie (16258): Vitesse du vent: 11.10.2017 20:00:00 - 17.10.2017 20:00:00 (CEST)Monte S. Angelo, Italie (16258): Direction du vent: 11.10.2017 20:00:00 - 17.10.2017 20:00:00 (CEST)Monte S. Angelo, Italie (16258): visibility: 11.10.2017 20:00:00 - 17.10.2017 20:00:00 (CEST)
Date & Time tt [°C] td [°C] ff [km/h] ff [knt] dd vv [km]
17.10.2017 20:00:00 18,8 -0,1 5 3 SE 10
17.10.2017 19:00:00 19,0 2,8 5 3 E 12
17.10.2017 18:00:00 20,0 7,4 4 2 E 20
17.10.2017 17:00:00 20,0 7,4 4 2 SSE 20
17.10.2017 16:00:00 20,2 6,9 5 3 SSE 20
17.10.2017 15:00:00 20,0 7,7 8 4 SSE 20
17.10.2017 14:00:00 20,4 8,7 8 4 SE 20
17.10.2017 13:00:00 21,2 9,8 5 3 SSE 20
17.10.2017 12:00:00 20,6 6,5 4 2 S 20
17.10.2017 11:00:00 20,4 -1,4 4 2 S 20
17.10.2017 10:00:00 19,0 -5,1 4 2 S 20
17.10.2017 09:00:00 18,4 -5,6 4 2 S 20
17.10.2017 08:00:00 18,2 -5,8 4 2 S 20
17.10.2017 07:00:00 18,6 -5,5 4 2 S 20
17.10.2017 06:00:00 18,6 -4,8 4 2 S 20
17.10.2017 05:00:00 19,0 -4,5 4 2 S 20
17.10.2017 04:00:00 19,0 -4,5 4 2 S 20
17.10.2017 03:00:00 18,0 1,5 4 2 S 20
17.10.2017 02:00:00 18,0 4,2 4 2 S 20
17.10.2017 01:00:00 18,0 5,6 4 2 SSE 20
17.10.2017 00:00:00 18,0 5,6 0 0 N 20
16.10.2017 23:00:00 18,0 4,2 4 2 S 20
16.10.2017 22:00:00 18,0 2,3 0 0 N 20
16.10.2017 21:00:00 18,0 2,3 0 0 N 20
16.10.2017 20:00:00 18,0 2,7 0 0 N 20
16.10.2017 19:00:00 18,6 4,4 0 0 N 20
16.10.2017 18:00:00 19,4 5,5 4 2 WNW 20
16.10.2017 17:00:00 22,6 7,6 0 0 N 20
16.10.2017 16:00:00 22,2 11,3 4 2 SW 20
16.10.2017 15:00:00 22,8 10,6 4 2 S 20
16.10.2017 14:00:00 22,0 10,5 4 2 WSW 20
16.10.2017 13:00:00 21,8 7,6 2 1 SSW 20
16.10.2017 12:00:00 20,0 1,9 4 2 ENE 20
16.10.2017 11:00:00 19,0 -0,9 4 2 W 20
16.10.2017 10:00:00 18,0 -7,4 9 5 WNW 20
16.10.2017 09:00:00 17,4 -9,5 11 6 W 25
16.10.2017 08:00:00 17,0 -11,6 9 5 WNW 25
16.10.2017 07:00:00 17,0 -14,8 11 6 WNW 20
16.10.2017 06:00:00 17,8 -14,2 8 4 NW 20
16.10.2017 05:00:00 17,8 -14,2 9 5 NW 20
16.10.2017 04:00:00 17,8 -13,1 15 8 NNW 20
16.10.2017 03:00:00 17,4 -13,4 21 11 NNW 20
16.10.2017 02:00:00 17,6 -10,2 21 11 NW 20
16.10.2017 01:00:00 17,0 -9,0 16 9 NW 20
16.10.2017 00:00:00 16,6 -9,3 18 10 NW 20
15.10.2017 23:00:00 16,4 -9,5 18 10 NW 20
15.10.2017 22:00:00 17,0 -9,0 18 10 NW 20
15.10.2017 21:00:00 16,6 -7,1 15 8 NW 20
15.10.2017 20:00:00 16,6 -5,2 16 9 NW 20
15.10.2017 19:00:00 17,0 -1,1 16 9 NW 20
15.10.2017 18:00:00 16,4 0,5 13 7 NW 20
15.10.2017 17:00:00 17,6 1,6 15 8 NW 20
15.10.2017 16:00:00 17,2 0,8 11 6 NW 20
15.10.2017 15:00:00 18,0 1,1 13 7 WNW 20
15.10.2017 14:00:00 18,0 1,5 13 7 WNW 20
15.10.2017 13:00:00 17,6 0,7 15 8 NW 20
15.10.2017 12:00:00 17,0 1,4 11 6 NW 20
15.10.2017 11:00:00 16,8 2,4 13 7 NW 20
15.10.2017 10:00:00 16,0 -0,3 15 8 NW 20
15.10.2017 09:00:00 16,0 0,2 15 8 NW 20
15.10.2017 08:00:00 15,8 0,0 18 10 NW 20
15.10.2017 07:00:00 15,2 -0,1 18 10 NW 20
15.10.2017 06:00:00 15,0 0,1 15 8 NW 20
15.10.2017 05:00:00 14,6 0,1 16 9 NW 20
15.10.2017 04:00:00 15,0 0,8 15 8 NNW 20
15.10.2017 03:00:00 14,6 1,2 11 6 NW 20
15.10.2017 02:00:00 15,2 4,9 15 8 NW 20
15.10.2017 01:00:00 14,0 7,5 15 8 NW 20
15.10.2017 00:00:00 13,2 4,6 18 10 NW 20
14.10.2017 23:00:00 13,6 3,9 31 17 NNW 20
14.10.2017 22:00:00 14,2 0,1 24 13 NW 20
14.10.2017 21:00:00 15,0 0,1 22 12 NW 20
14.10.2017 20:00:00 14,6 0,8 16 9 NW 20
14.10.2017 19:00:00 15,8 -0,4 24 13 NW 20
14.10.2017 18:00:00 15,0 4,4 22 12 NW 20
14.10.2017 17:00:00 15,2 6,7 22 12 NW 20
14.10.2017 16:00:00 15,2 9,4 21 11 NW 20
14.10.2017 15:00:00 16,0 9,7 13 7 NW 20
14.10.2017 14:00:00 17,2 9,4 9 5 NW 20
14.10.2017 13:00:00 17,0 11,3 9 5 NW 20
14.10.2017 12:00:00 16,2 12,0 8 4 NW 20
14.10.2017 11:00:00 14,8 11,4 8 4 NNW 20
14.10.2017 10:00:00 14,8 6,6 11 6 NW 20
14.10.2017 09:00:00 14,0 6,4 13 7 NW 20
14.10.2017 08:00:00 13,4 3,8 15 8 NW 20
14.10.2017 07:00:00 13,0 6,4 15 8 NW 10
14.10.2017 06:00:00 12,4 6,4 15 8 NW 10
14.10.2017 05:00:00 13,0 7,0 13 7 NW 10
14.10.2017 04:00:00 12,8 7,9 15 8 NW 10
14.10.2017 03:00:00 12,0 7,7 18 10 NW 10
14.10.2017 02:00:00 12,0 8,3 16 9 NW 10
14.10.2017 01:00:00 11,6 7,7 18 10 NW 10
14.10.2017 00:00:00 12,0 7,7 18 10 NW 10
13.10.2017 23:00:00 12,0 9,0 16 9 NW 10
13.10.2017 22:00:00 12,0 9,2 18 10 NW 10
13.10.2017 21:00:00 12,0 8,1 22 12 NNW 10
13.10.2017 20:00:00 12,4 8,1 18 10 NW 15
13.10.2017 19:00:00 12,2 9,4 26 14 WNW 15
13.10.2017 18:00:00 13,2 8,7 18 10 NW 15
13.10.2017 17:00:00 14,2 9,2 15 8 W 15
13.10.2017 16:00:00 14,6 9,2 15 8 W 15
13.10.2017 15:00:00 15,6 7,1 9 5 WNW 15
13.10.2017 14:00:00 16,4 10,5 4 2 WNW 15
13.10.2017 13:00:00 16,6 10,2 4 2 W 20
13.10.2017 12:00:00 16,0 9,9 8 4 WSW 20
13.10.2017 11:00:00 15,0 10,2 4 2 W 20
13.10.2017 10:00:00 14,0 10,6 4 2 WNW 20
13.10.2017 09:00:00 13,0 9,2 9 5 WNW 20
13.10.2017 08:00:00 12,8 6,4 9 5 WNW 20
13.10.2017 07:00:00 14,2 5,8 4 2 S 20
13.10.2017 06:00:00 13,2 3,8 4 2 W 20
13.10.2017 05:00:00 13,2 6,1 8 4 NW 20
13.10.2017 04:00:00 13,2 6,1 5 3 NW 20
13.10.2017 03:00:00 13,4 4,8 9 5 NW 20
13.10.2017 02:00:00 14,0 -0,1 4 2 NNE 20
13.10.2017 01:00:00 13,6 -4,5 5 3 WNW 20
13.10.2017 00:00:00 13,6 -2,4 8 4 WNW 20
12.10.2017 23:00:00 13,8 -0,3 8 4 WNW 20
12.10.2017 22:00:00 14,2 -1,4 5 3 NW 20
12.10.2017 21:00:00 15,6 -4,3 5 3 NW 15
12.10.2017 20:00:00 15,0 -1,6 9 5 NNW 10
12.10.2017 19:00:00 15,0 5,0 11 6 NW 15
12.10.2017 18:00:00 16,0 7,5 8 4 NNW 20
12.10.2017 17:00:00 18,2 7,9 4 2 NW 20
12.10.2017 16:00:00 18,0 10,6 4 2 SSE 20
12.10.2017 15:00:00 18,4 12,8 0 0 N 20
12.10.2017 14:00:00 17,6 13,1 4 2 SSE 20
12.10.2017 13:00:00 16,8 13,9 4 2 S 20
12.10.2017 12:00:00 15,4 11,6 5 3 S 25
12.10.2017 11:00:00 16,2 5,8 4 2 S 25
12.10.2017 10:00:00 15,4 -3,0 0 0 N 25
12.10.2017 09:00:00 13,8 -3,5 5 3 NW 25
12.10.2017 08:00:00 13,0 -4,6 11 6 WNW 20
12.10.2017 07:00:00 13,0 -4,6 9 5 W 20
12.10.2017 06:00:00 13,0 -3,3 9 5 W 20
12.10.2017 05:00:00 13,0 -3,3 8 4 W 20
12.10.2017 04:00:00 13,0 -1,0 4 2 SW 20
12.10.2017 03:00:00 12,6 0,7 4 2 WNW 20
12.10.2017 02:00:00 12,0 -0,5 4 2 WNW 20
12.10.2017 01:00:00 11,2 3,0 4 2 W 20
12.10.2017 00:00:00 12,0 6,9 11 6 WNW 20
11.10.2017 23:00:00 12,8 3,2 11 6 W 20
11.10.2017 22:00:00 13,0 -0,3 8 4 WSW 20
11.10.2017 21:00:00 13,0 -0,3 8 4 SW 20
11.10.2017 20:00:00 13,2 0,6 9 5 WSW 20

tt = Température de l'air
td = dewpoint
ff = Vitesse du vent
dd = Direction du vent
vv = visibility

stations d'obs. à proximité